createdAt,value
2023-04-13T00:00:11.632Z,443.0000
2023-04-13T00:01:15.534Z,438.5000
2023-04-13T00:02:19.612Z,439.1667
2023-04-13T00:03:23.707Z,443.4167
2023-04-13T00:04:23.606Z,442.5454
2023-04-13T00:05:27.551Z,446.4167
2023-04-13T00:06:31.405Z,441.7500
2023-04-13T00:07:35.315Z,440.5833
2023-04-13T00:08:39.201Z,440.5833
2023-04-13T00:09:43.093Z,441.4167
2023-04-13T00:10:46.982Z,441.9167
2023-04-13T00:11:50.880Z,443.7500
2023-04-13T00:12:54.757Z,444.0000
2023-04-13T00:13:58.946Z,444.3333
2023-04-13T00:15:03.070Z,444.5000
2023-04-13T00:16:06.954Z,444.1667
2023-04-13T00:17:10.861Z,442.0000
2023-04-13T00:18:14.737Z,443.3333
2023-04-13T00:19:18.716Z,441.9167
2023-04-13T00:20:22.625Z,443.4167
2023-04-13T00:21:26.512Z,446.6667
2023-04-13T00:22:30.378Z,445.4167
2023-04-13T00:23:34.280Z,445.4167
2023-04-13T00:24:38.174Z,447.8333
2023-04-13T00:25:42.968Z,447.4167
2023-04-13T00:26:46.850Z,442.2500
2023-04-13T00:27:50.785Z,443.8333
2023-04-13T00:28:54.698Z,443.0000
2023-04-13T00:29:58.588Z,441.0833
2023-04-13T00:31:02.859Z,443.4167
2023-04-13T00:32:06.790Z,445.5833
2023-04-13T00:33:10.748Z,445.2500
2023-04-13T00:34:14.603Z,443.6667
2023-04-13T00:35:18.532Z,446.2500
2023-04-13T00:36:22.404Z,446.2500
2023-04-13T00:37:26.318Z,444.5833
2023-04-13T00:38:30.463Z,440.0000
2023-04-13T00:39:34.325Z,440.5000
2023-04-13T00:40:38.281Z,442.3333
2023-04-13T00:41:42.150Z,444.0833
2023-04-13T00:42:46.075Z,441.6667
2023-04-13T00:43:49.954Z,440.6667
2023-04-13T00:44:53.885Z,440.5833
2023-04-13T00:45:58.000Z,442.6667
2023-04-13T00:47:01.910Z,442.2500
2023-04-13T00:48:05.859Z,439.9167
2023-04-13T00:49:09.762Z,438.1667
2023-04-13T00:50:13.666Z,439.8333
2023-04-13T00:51:17.563Z,440.2500
2023-04-13T00:52:21.443Z,441.3333
2023-04-13T00:53:25.652Z,441.5000
2023-04-13T00:54:29.537Z,442.1667
2023-04-13T00:55:33.831Z,439.0833
2023-04-13T00:56:37.736Z,440.3333
2023-04-13T00:57:41.619Z,441.9167
2023-04-13T00:58:45.536Z,444.0833
2023-04-13T00:59:49.404Z,442.5000
2023-04-13T01:00:53.547Z,441.4167
2023-04-13T01:01:57.482Z,440.8333
2023-04-13T01:03:01.520Z,441.5000
2023-04-13T01:04:05.733Z,440.5833
2023-04-13T01:05:09.584Z,443.8333
2023-04-13T01:06:13.872Z,446.0833
2023-04-13T01:07:17.755Z,447.2500
2023-04-13T01:08:21.653Z,448.0000
2023-04-13T01:09:25.527Z,444.7500
2023-04-13T01:10:29.756Z,445.6667
2023-04-13T01:11:33.626Z,442.2500
2023-04-13T01:12:37.535Z,443.1667
2023-04-13T01:13:41.416Z,441.3333
2023-04-13T01:14:45.304Z,443.1667
2023-04-13T01:15:49.546Z,443.0000
2023-04-13T01:16:53.410Z,442.3333
2023-04-13T01:17:57.553Z,444.8333
2023-04-13T01:19:01.471Z,441.1667
2023-04-13T01:20:05.339Z,440.4167
2023-04-13T01:21:09.243Z,441.7500
2023-04-13T01:22:13.149Z,441.3333
2023-04-13T01:23:17.274Z,443.9167
2023-04-13T01:24:21.184Z,439.0000
2023-04-13T01:25:25.332Z,440.1667
2023-04-13T01:26:29.212Z,442.0833
2023-04-13T01:27:33.113Z,442.4167
2023-04-13T01:28:37.032Z,440.4167
2023-04-13T01:29:40.938Z,438.8333
2023-04-13T01:30:45.067Z,437.3333
2023-04-13T01:31:49.130Z,441.5833
2023-04-13T01:32:53.266Z,443.9167
2023-04-13T01:33:57.686Z,443.9167
2023-04-13T01:35:01.673Z,444.8333
2023-04-13T01:36:05.555Z,445.0000
2023-04-13T01:37:09.429Z,448.2500
2023-04-13T01:38:13.304Z,448.6667
2023-04-13T01:39:17.219Z,447.5833
2023-04-13T01:40:21.099Z,446.9167
2023-04-13T01:41:25.003Z,442.8333
2023-04-13T01:42:28.877Z,442.0833
2023-04-13T01:43:33.030Z,440.8333
2023-04-13T01:44:36.889Z,441.5000
2023-04-13T01:45:40.769Z,443.4167
2023-04-13T01:46:44.665Z,442.8333
2023-04-13T01:47:48.594Z,443.5000
2023-04-13T01:48:52.448Z,444.1667
2023-04-13T01:49:56.353Z,444.8333
2023-04-13T01:51:00.484Z,444.0000
2023-04-13T01:52:04.380Z,443.5833
2023-04-13T01:53:08.599Z,443.9167
2023-04-13T01:54:12.495Z,443.6667
2023-04-13T01:55:16.362Z,443.5000
2023-04-13T01:56:20.504Z,442.3333
2023-04-13T01:57:24.382Z,441.5000
2023-04-13T01:58:28.312Z,437.7500
2023-04-13T01:59:32.196Z,436.7500
2023-04-13T02:00:36.144Z,436.6667
2023-04-13T02:01:40.394Z,441.0833
2023-04-13T02:02:44.426Z,442.7500
2023-04-13T02:03:48.685Z,445.3333
2023-04-13T02:04:52.648Z,446.4167
2023-04-13T02:05:56.810Z,447.0000
2023-04-13T02:07:00.699Z,448.6667
2023-04-13T02:08:04.584Z,449.0000
2023-04-13T02:09:08.485Z,444.0000
2023-04-13T02:10:12.368Z,443.6667
2023-04-13T02:11:12.699Z,438.8000
2023-04-13T02:12:16.610Z,440.5000
2023-04-13T02:13:20.490Z,444.7500
2023-04-13T02:14:24.371Z,446.0000
2023-04-13T02:15:28.274Z,446.3333
2023-04-13T02:16:32.323Z,443.0833
2023-04-13T02:17:36.241Z,442.0833
2023-04-13T02:18:40.167Z,442.0000
2023-04-13T02:19:44.035Z,447.7500
2023-04-13T02:20:47.943Z,444.6667
2023-04-13T02:21:51.839Z,445.2500
2023-04-13T02:22:55.722Z,441.4167
2023-04-13T02:23:59.927Z,440.3333
2023-04-13T02:25:04.131Z,441.6667
2023-04-13T02:26:04.290Z,442.8182
2023-04-13T02:27:08.177Z,445.0833
2023-04-13T02:28:12.053Z,445.5000
2023-04-13T02:29:15.965Z,446.3333
2023-04-13T02:30:19.862Z,448.2500
2023-04-13T02:31:23.801Z,447.2500
2023-04-13T02:32:27.703Z,445.8333
2023-04-13T02:33:31.596Z,446.0000
2023-04-13T02:34:35.533Z,443.9167
2023-04-13T02:35:39.421Z,442.5833
2023-04-13T02:36:43.303Z,440.4167
2023-04-13T02:37:47.202Z,439.8333
2023-04-13T02:38:51.814Z,442.5000
2023-04-13T02:39:55.803Z,442.7500
2023-04-13T02:40:59.668Z,444.6667
2023-04-13T02:42:03.572Z,446.3333
2023-04-13T02:43:07.453Z,444.6667
2023-04-13T02:44:11.356Z,443.5000
2023-04-13T02:45:15.261Z,439.7500
2023-04-13T02:46:19.170Z,439.8333
2023-04-13T02:47:23.099Z,438.4167
2023-04-13T02:48:26.996Z,436.8333
2023-04-13T02:49:30.869Z,438.3333
2023-04-13T02:50:34.766Z,441.3333
2023-04-13T02:51:38.650Z,444.6667
2023-04-13T02:52:42.570Z,446.1667
2023-04-13T02:53:46.442Z,448.5833
2023-04-13T02:54:50.346Z,443.0833
2023-04-13T02:55:54.235Z,443.2500
2023-04-13T02:56:58.315Z,444.3333
2023-04-13T02:58:02.214Z,448.8333
2023-04-13T02:59:06.120Z,447.4167
2023-04-13T03:00:10.016Z,448.4167
2023-04-13T03:01:13.945Z,447.4167
2023-04-13T03:02:17.827Z,445.5000
2023-04-13T03:03:21.772Z,445.8333
2023-04-13T03:04:25.630Z,445.0833
2023-04-13T03:05:29.523Z,443.0833
2023-04-13T03:06:33.407Z,441.5000
2023-04-13T03:07:37.312Z,441.6667
2023-04-13T03:08:41.205Z,446.8333
2023-04-13T03:09:45.102Z,448.1667
2023-04-13T03:10:48.990Z,443.8333
2023-04-13T03:11:52.896Z,443.1667
2023-04-13T03:12:56.780Z,444.1667
2023-04-13T03:14:01.017Z,442.5000
2023-04-13T03:15:05.266Z,441.8333
2023-04-13T03:16:09.151Z,443.0000
2023-04-13T03:17:13.077Z,442.4167
2023-04-13T03:18:16.968Z,444.9167
2023-04-13T03:19:20.868Z,446.2500
2023-04-13T03:20:24.748Z,445.0000
2023-04-13T03:21:28.656Z,444.4167
2023-04-13T03:22:32.543Z,443.0000
2023-04-13T03:23:36.706Z,442.3333
2023-04-13T03:24:40.588Z,444.7500
2023-04-13T03:25:44.814Z,444.2500
2023-04-13T03:26:48.705Z,444.1667
2023-04-13T03:27:52.676Z,445.0833
2023-04-13T03:28:56.557Z,446.0000
2023-04-13T03:30:00.450Z,445.1667
2023-04-13T03:31:04.364Z,441.6667
2023-04-13T03:32:08.215Z,442.5833
2023-04-13T03:33:13.640Z,441.4167
2023-04-13T03:34:17.528Z,440.8333
2023-04-13T03:35:21.412Z,444.8333
2023-04-13T03:36:25.319Z,442.7500
2023-04-13T03:37:29.203Z,441.9167
2023-04-13T03:38:33.115Z,444.0000
2023-04-13T03:39:36.998Z,443.3333
2023-04-13T03:40:40.895Z,442.8333
2023-04-13T03:41:44.759Z,443.9167
2023-04-13T03:42:48.674Z,442.3333
2023-04-13T03:43:52.579Z,441.0833
2023-04-13T03:44:56.477Z,442.7500
2023-04-13T03:46:00.608Z,441.3333
2023-04-13T03:47:04.499Z,439.1667
2023-04-13T03:48:08.466Z,443.7500
2023-04-13T03:49:12.335Z,445.0000
2023-04-13T03:50:16.253Z,441.5000
2023-04-13T03:51:20.151Z,441.5833
2023-04-13T03:52:24.059Z,443.0000
2023-04-13T03:53:27.948Z,442.2500
2023-04-13T03:54:31.859Z,440.8333
2023-04-13T03:55:35.753Z,440.9167
2023-04-13T03:56:39.639Z,441.8333
2023-04-13T03:57:43.532Z,442.0000
2023-04-13T03:58:47.412Z,443.0833
2023-04-13T03:59:51.307Z,442.5833
2023-04-13T04:00:55.219Z,445.8333
2023-04-13T04:01:59.165Z,446.4167
2023-04-13T04:03:03.102Z,444.0833
2023-04-13T04:04:03.876Z,440.2727
2023-04-13T04:05:08.250Z,441.7500
2023-04-13T04:06:12.115Z,442.6667
2023-04-13T04:07:16.008Z,441.0833
2023-04-13T04:08:19.928Z,442.9167
2023-04-13T04:09:23.810Z,439.9167
2023-04-13T04:10:27.719Z,437.7500
2023-04-13T04:11:32.588Z,437.4167
2023-04-13T04:12:36.475Z,437.4167
2023-04-13T04:13:40.400Z,436.1667
2023-04-13T04:14:44.295Z,437.6667
2023-04-13T04:15:48.182Z,435.8333
2023-04-13T04:16:52.063Z,437.8333
2023-04-13T04:17:55.996Z,444.6667
2023-04-13T04:18:59.873Z,443.7500
2023-04-13T04:20:03.784Z,446.0833
2023-04-13T04:21:07.649Z,443.1667
2023-04-13T04:22:11.525Z,440.7500
2023-04-13T04:23:18.136Z,443.0000
2023-04-13T04:24:17.861Z,442.6364
2023-04-13T04:25:21.744Z,442.2500
2023-04-13T04:26:25.743Z,442.5833
2023-04-13T04:27:29.737Z,441.2500
2023-04-13T04:28:33.623Z,442.2500
2023-04-13T04:29:37.508Z,443.4167
2023-04-13T04:30:41.393Z,449.0833
2023-04-13T04:31:45.319Z,446.5833
2023-04-13T04:32:49.223Z,445.5000
2023-04-13T04:33:53.095Z,442.9167
2023-04-13T04:34:57.004Z,443.1667
2023-04-13T04:36:00.890Z,442.8333
2023-04-13T04:37:13.995Z,441.9167
2023-04-13T04:38:09.295Z,440.9091
2023-04-13T04:39:13.208Z,439.4167
2023-04-13T04:40:17.081Z,447.2500
2023-04-13T04:41:20.991Z,449.9167
2023-04-13T04:42:24.847Z,446.2500
2023-04-13T04:43:28.981Z,444.1667
2023-04-13T04:44:32.856Z,443.3333
2023-04-13T04:45:36.760Z,442.8333
2023-04-13T04:46:40.646Z,444.9167
2023-04-13T04:47:44.577Z,446.0833
2023-04-13T04:48:48.486Z,447.5000
2023-04-13T04:49:52.402Z,441.7500
2023-04-13T04:50:56.515Z,442.4167
2023-04-13T04:52:00.418Z,445.7500
2023-04-13T04:53:04.521Z,446.0833
2023-04-13T04:54:08.437Z,444.5000
2023-04-13T04:55:12.299Z,447.0000
2023-04-13T04:56:16.230Z,449.8333
2023-04-13T04:57:20.108Z,445.0000
2023-04-13T04:58:20.409Z,440.5454
2023-04-13T04:59:24.313Z,448.6667
2023-04-13T05:00:28.199Z,449.3333
2023-04-13T05:01:32.233Z,446.5000
2023-04-13T05:02:36.267Z,449.4167
2023-04-13T05:03:40.203Z,444.6667
2023-04-13T05:04:44.097Z,444.8333
2023-04-13T05:05:48.192Z,444.5833
2023-04-13T05:06:52.103Z,444.9167
2023-04-13T05:07:55.965Z,442.0000
2023-04-13T05:09:00.119Z,444.8333
2023-04-13T05:10:04.147Z,446.4167
2023-04-13T05:11:08.058Z,446.6667
2023-04-13T05:12:11.951Z,444.0833
2023-04-13T05:13:15.874Z,444.5000
2023-04-13T05:14:19.759Z,446.6667
2023-04-13T05:15:23.664Z,446.4167
2023-04-13T05:16:27.822Z,445.7500
2023-04-13T05:17:31.758Z,446.2500
2023-04-13T05:18:35.637Z,445.7500
2023-04-13T05:19:39.558Z,439.7500
2023-04-13T05:20:43.453Z,440.9167
2023-04-13T05:21:47.356Z,440.8333
2023-04-13T05:22:51.232Z,441.4167
2023-04-13T05:23:55.132Z,441.0833
2023-04-13T05:24:59.020Z,441.7500
2023-04-13T05:26:02.916Z,443.7500
2023-04-13T05:27:06.800Z,442.8333
2023-04-13T05:28:10.673Z,445.0000
2023-04-13T05:29:14.566Z,451.1667
2023-04-13T05:30:18.473Z,451.1667
2023-04-13T05:31:22.394Z,449.5833
2023-04-13T05:32:26.394Z,447.8333
2023-04-13T05:33:31.022Z,447.2500
2023-04-13T05:34:34.917Z,449.1667
2023-04-13T05:35:38.799Z,450.4167
2023-04-13T05:36:42.714Z,450.4167
2023-04-13T05:37:46.615Z,448.7500
2023-04-13T05:38:50.493Z,444.9167
2023-04-13T05:39:54.369Z,447.0000
2023-04-13T05:40:58.260Z,448.0833
2023-04-13T05:42:02.191Z,448.5833
2023-04-13T05:43:06.043Z,449.5833
2023-04-13T05:44:09.952Z,449.5000
2023-04-13T05:45:13.848Z,448.9167
2023-04-13T05:46:17.799Z,449.1667
2023-04-13T05:47:21.738Z,451.6667
2023-04-13T05:48:25.648Z,456.5833
2023-04-13T05:49:29.530Z,456.1667
2023-04-13T05:50:33.449Z,448.8333
2023-04-13T05:51:37.649Z,450.7500
2023-04-13T05:52:41.524Z,450.0833
2023-04-13T05:53:45.445Z,453.1667
2023-04-13T05:54:49.328Z,451.0000
2023-04-13T05:55:53.226Z,450.5833
2023-04-13T05:56:57.118Z,456.2500
2023-04-13T05:58:00.990Z,453.9167
2023-04-13T05:59:05.092Z,449.4167
2023-04-13T06:00:08.995Z,441.1667
2023-04-13T06:01:12.899Z,442.5000
2023-04-13T06:02:16.841Z,446.8333
2023-04-13T06:03:20.960Z,448.8333
2023-04-13T06:04:25.158Z,449.8333
2023-04-13T06:05:29.307Z,454.0000
2023-04-13T06:06:33.378Z,456.9167
2023-04-13T06:07:37.280Z,455.6667
2023-04-13T06:08:41.464Z,456.0833
2023-04-13T06:09:45.334Z,454.1667
2023-04-13T06:10:49.243Z,451.6667
2023-04-13T06:11:53.161Z,453.2500
2023-04-13T06:12:57.051Z,454.5833
2023-04-13T06:14:00.963Z,453.2500
2023-04-13T06:15:04.854Z,449.6667
2023-04-13T06:16:08.984Z,449.3333
2023-04-13T06:17:12.886Z,449.2500
2023-04-13T06:18:16.816Z,449.5000
2023-04-13T06:19:20.716Z,454.8333
2023-04-13T06:20:24.612Z,455.5833
2023-04-13T06:21:28.486Z,456.6667
2023-04-13T06:22:32.392Z,461.0833
2023-04-13T06:23:36.658Z,465.2500
2023-04-13T06:24:40.561Z,461.8333
2023-04-13T06:25:44.465Z,460.0000
2023-04-13T06:26:48.348Z,459.0833
2023-04-13T06:27:52.228Z,456.4167
2023-04-13T06:28:56.366Z,454.9167
2023-04-13T06:30:00.266Z,456.0833
2023-04-13T06:31:04.199Z,453.7500
2023-04-13T06:32:08.050Z,452.6667
2023-04-13T06:33:12.217Z,451.7500
2023-04-13T06:34:16.141Z,452.6667
2023-04-13T06:35:20.026Z,453.1667
2023-04-13T06:36:24.155Z,450.2500
2023-04-13T06:37:28.021Z,453.5000
2023-04-13T06:38:31.937Z,452.5833
2023-04-13T06:39:35.819Z,453.2500
2023-04-13T06:40:39.728Z,452.0833
2023-04-13T06:41:43.636Z,454.5000
2023-04-13T06:42:47.544Z,455.1667
2023-04-13T06:43:51.426Z,455.1667
2023-04-13T06:44:55.318Z,454.2500
2023-04-13T06:45:59.477Z,452.7500
2023-04-13T06:47:03.348Z,455.0000
2023-04-13T06:48:07.306Z,454.3333
2023-04-13T06:49:11.250Z,451.9167
2023-04-13T06:50:15.159Z,453.0000
2023-04-13T06:51:19.050Z,451.8333
2023-04-13T06:52:22.947Z,453.8333
2023-04-13T06:53:26.839Z,449.1667
2023-04-13T06:54:30.740Z,447.7500
2023-04-13T06:55:34.630Z,448.0833
2023-04-13T06:56:38.553Z,447.7500
2023-04-13T06:57:42.452Z,448.1667
2023-04-13T06:58:46.365Z,452.0000
2023-04-13T06:59:50.232Z,451.5000
2023-04-13T07:00:54.440Z,451.0000
2023-04-13T07:01:58.452Z,450.2500
2023-04-13T07:03:02.556Z,456.5000
2023-04-13T07:04:06.642Z,458.0000
2023-04-13T07:05:10.589Z,455.7500
2023-04-13T07:06:14.504Z,450.3333
2023-04-13T07:07:18.387Z,444.0000
2023-04-13T07:08:22.263Z,443.9167
2023-04-13T07:09:26.164Z,443.9167
2023-04-13T07:10:30.035Z,443.3333
2023-04-13T07:11:34.181Z,441.0833
2023-04-13T07:12:38.094Z,442.6667
2023-04-13T07:13:41.960Z,444.2500
2023-04-13T07:14:45.844Z,448.5000
2023-04-13T07:15:49.808Z,447.9167
2023-04-13T07:16:53.668Z,446.0833
2023-04-13T07:17:57.618Z,449.1667
2023-04-13T07:19:01.606Z,452.9167
2023-04-13T07:20:05.466Z,451.6667
2023-04-13T07:21:09.350Z,450.5000
2023-04-13T07:22:13.245Z,446.8333
2023-04-13T07:23:17.139Z,445.8333
2023-04-13T07:24:21.022Z,444.8333
2023-04-13T07:25:24.963Z,444.9167
2023-04-13T07:26:28.817Z,445.1667
2023-04-13T07:27:32.707Z,445.7500
2023-04-13T07:28:36.608Z,443.8333
2023-04-13T07:29:40.498Z,443.2500
2023-04-13T07:30:44.375Z,443.4167
2023-04-13T07:31:48.360Z,445.6667
2023-04-13T07:32:52.325Z,446.5000
2023-04-13T07:33:56.195Z,445.4167
2023-04-13T07:35:00.105Z,443.5833
2023-04-13T07:36:04.218Z,443.1667
2023-04-13T07:37:08.081Z,442.5000
2023-04-13T07:38:11.998Z,444.8333
2023-04-13T07:39:15.899Z,447.8333
2023-04-13T07:40:19.778Z,449.9167
2023-04-13T07:41:23.915Z,449.5833
2023-04-13T07:42:27.780Z,447.6667
2023-04-13T07:43:31.951Z,451.3333
2023-04-13T07:44:35.827Z,452.0000
2023-04-13T07:45:39.722Z,454.5833
2023-04-13T07:46:44.613Z,452.7500
2023-04-13T07:47:48.498Z,454.5833
2023-04-13T07:48:52.386Z,457.4167
2023-04-13T07:49:56.294Z,458.1667
2023-04-13T07:51:00.169Z,459.0000
2023-04-13T07:52:04.082Z,455.4167
2023-04-13T07:53:07.950Z,453.2500
2023-04-13T07:54:11.877Z,453.7500
2023-04-13T07:55:15.739Z,452.1667
2023-04-13T07:56:19.657Z,452.2500
2023-04-13T07:57:23.546Z,454.0833
2023-04-13T07:58:27.668Z,454.0833
2023-04-13T07:59:31.574Z,453.5000
2023-04-13T08:00:35.476Z,460.5000
2023-04-13T08:01:39.398Z,457.7500
2023-04-13T08:02:43.450Z,456.0833
2023-04-13T08:03:47.555Z,457.0833
2023-04-13T08:04:51.547Z,456.0833
2023-04-13T08:05:55.468Z,455.8333
2023-04-13T08:06:59.363Z,458.4167
2023-04-13T08:08:03.265Z,462.3333
2023-04-13T08:09:07.161Z,461.3333
2023-04-13T08:10:11.048Z,459.0000
2023-04-13T08:11:14.937Z,458.3333
2023-04-13T08:12:18.842Z,456.5833
2023-04-13T08:13:22.721Z,454.0000
2023-04-13T08:14:26.630Z,456.8333
2023-04-13T08:15:30.538Z,456.6667
2023-04-13T08:16:34.563Z,454.7500
2023-04-13T08:17:38.603Z,455.9167
2023-04-13T08:18:42.622Z,460.5000
2023-04-13T08:19:46.532Z,456.2500
2023-04-13T08:20:50.521Z,456.2500
2023-04-13T08:21:54.397Z,459.2500
2023-04-13T08:22:58.310Z,458.7500
2023-04-13T08:24:02.223Z,460.4167
2023-04-13T08:25:06.122Z,458.0833
2023-04-13T08:26:09.998Z,464.5833
2023-04-13T08:27:13.901Z,466.2500
2023-04-13T08:28:17.934Z,466.0833
2023-04-13T08:29:21.832Z,465.0000
2023-04-13T08:30:25.763Z,468.0833
2023-04-13T08:31:29.662Z,472.8333
2023-04-13T08:32:33.592Z,471.0000
2023-04-13T08:33:37.463Z,467.5000
2023-04-13T08:34:41.366Z,465.2500
2023-04-13T08:35:45.259Z,465.7500
2023-04-13T08:36:49.145Z,465.0833
2023-04-13T08:37:53.056Z,464.0833
2023-04-13T08:38:57.157Z,470.5833
2023-04-13T08:40:01.299Z,464.9167
2023-04-13T08:41:05.493Z,465.9167
2023-04-13T08:42:09.386Z,469.5833
2023-04-13T08:43:13.287Z,473.3333
2023-04-13T08:44:17.198Z,472.2500
2023-04-13T08:45:21.082Z,469.7500
2023-04-13T08:46:25.092Z,468.1667
2023-04-13T08:47:29.111Z,470.0000
2023-04-13T08:48:46.121Z,466.5833
2023-04-13T08:49:37.493Z,464.4546
2023-04-13T08:50:41.377Z,464.6667
2023-04-13T08:51:45.274Z,465.4167
2023-04-13T08:52:49.162Z,468.4167
2023-04-13T08:53:53.059Z,469.5000
2023-04-13T08:54:56.983Z,469.4167
2023-04-13T08:56:01.099Z,470.1667
2023-04-13T08:57:05.016Z,471.5833
2023-04-13T08:58:08.905Z,472.6667
2023-04-13T08:59:09.240Z,471.7273
2023-04-13T09:00:13.135Z,468.6667
2023-04-13T09:01:17.064Z,470.7500
2023-04-13T09:02:20.995Z,468.5833
2023-04-13T09:03:24.961Z,468.0833
2023-04-13T09:04:28.957Z,472.5833
2023-04-13T09:05:32.874Z,472.7500
2023-04-13T09:06:36.762Z,471.8333
2023-04-13T09:07:40.672Z,473.2500
2023-04-13T09:08:44.586Z,471.3333
2023-04-13T09:09:48.512Z,471.0833
2023-04-13T09:10:52.620Z,479.9167
2023-04-13T09:11:56.510Z,476.4167
2023-04-13T09:13:00.388Z,477.8333
2023-04-13T09:14:04.565Z,479.7500
2023-04-13T09:15:08.436Z,472.2500
2023-04-13T09:16:12.403Z,470.0000
2023-04-13T09:17:16.344Z,466.8333
2023-04-13T09:18:20.250Z,468.5833
2023-04-13T09:19:24.140Z,472.6667
2023-04-13T09:20:28.042Z,475.1667
2023-04-13T09:21:31.968Z,473.5833
2023-04-13T09:22:35.826Z,473.4167
2023-04-13T09:23:39.737Z,475.9167
2023-04-13T09:24:43.661Z,474.4167
2023-04-13T09:25:47.711Z,473.9167
2023-04-13T09:26:51.591Z,471.1667
2023-04-13T09:27:55.504Z,468.9167
2023-04-13T09:28:59.727Z,467.5000
2023-04-13T09:30:03.758Z,467.5000
2023-04-13T09:31:07.677Z,466.3333
2023-04-13T09:32:11.553Z,471.8333
2023-04-13T09:33:15.750Z,471.2500
2023-04-13T09:34:19.654Z,465.7500
2023-04-13T09:35:23.566Z,461.4167
2023-04-13T09:36:27.706Z,461.9167
2023-04-13T09:37:31.628Z,463.5833
2023-04-13T09:38:35.555Z,465.4167
2023-04-13T09:39:39.456Z,468.8333
2023-04-13T09:40:43.330Z,469.8333
2023-04-13T09:41:47.259Z,466.5833
2023-04-13T09:42:51.140Z,467.0000
2023-04-13T09:43:55.056Z,469.7500
2023-04-13T09:44:58.942Z,469.3333
2023-04-13T09:46:02.906Z,468.0833
2023-04-13T09:47:06.796Z,467.7500
2023-04-13T09:48:10.704Z,472.5000
2023-04-13T09:49:14.648Z,474.2500
2023-04-13T09:50:18.638Z,472.6667
2023-04-13T09:51:22.537Z,472.4167
2023-04-13T09:52:26.424Z,470.5000
2023-04-13T09:53:30.329Z,468.7500
2023-04-13T09:54:34.238Z,468.4167
2023-04-13T09:55:38.137Z,475.0833
2023-04-13T09:56:42.126Z,476.5000
2023-04-13T09:57:46.035Z,477.0000
2023-04-13T09:58:50.155Z,476.1667
2023-04-13T09:59:54.050Z,478.0833
2023-04-13T10:00:57.952Z,477.6667
2023-04-13T10:02:01.923Z,477.8333
2023-04-13T10:03:05.949Z,477.8333
2023-04-13T10:04:09.846Z,476.2500
2023-04-13T10:05:13.876Z,478.1667
2023-04-13T10:06:17.812Z,475.3333
2023-04-13T10:07:21.808Z,478.7500
2023-04-13T10:08:36.807Z,476.4167
2023-04-13T10:09:30.198Z,473.5454
2023-04-13T10:10:34.327Z,468.5833
2023-04-13T10:11:38.211Z,468.8333
2023-04-13T10:12:42.105Z,472.5833
2023-04-13T10:13:46.235Z,477.0833
2023-04-13T10:14:50.148Z,477.0000
2023-04-13T10:15:54.060Z,476.5000
2023-04-13T10:16:57.931Z,470.4167
2023-04-13T10:18:01.893Z,466.8333
2023-04-13T10:19:05.762Z,462.5833
2023-04-13T10:20:09.668Z,458.0000
2023-04-13T10:21:13.813Z,454.8333
2023-04-13T10:22:17.693Z,452.7500
2023-04-13T10:23:21.622Z,450.6667
2023-04-13T10:24:25.482Z,449.3333
2023-04-13T10:25:33.473Z,451.0833
2023-04-13T10:26:33.872Z,452.0909
2023-04-13T10:27:37.766Z,450.0833
2023-04-13T10:28:41.912Z,446.3333
2023-04-13T10:29:45.818Z,449.3333
2023-04-13T10:30:49.734Z,449.1667
2023-04-13T10:31:53.637Z,448.7500
2023-04-13T10:32:57.561Z,449.9167
2023-04-13T10:34:01.604Z,450.9167
2023-04-13T10:35:05.619Z,444.7500
2023-04-13T10:36:09.510Z,443.3333
2023-04-13T10:37:13.397Z,443.5000
2023-04-13T10:38:17.316Z,443.5000
2023-04-13T10:39:21.218Z,441.4167
2023-04-13T10:40:25.114Z,439.0000
2023-04-13T10:41:29.024Z,438.3333
2023-04-13T10:42:39.258Z,438.3333
2023-04-13T10:43:37.658Z,443.0909
2023-04-13T10:44:41.534Z,438.3333
2023-04-13T10:45:45.413Z,432.7500
2023-04-13T10:46:49.303Z,433.6667
2023-04-13T10:47:53.232Z,436.1667
2023-04-13T10:48:57.299Z,435.6667
2023-04-13T10:50:01.267Z,436.0000
2023-04-13T10:51:05.162Z,436.3333
2023-04-13T10:52:09.035Z,435.3333
2023-04-13T10:53:13.142Z,438.3333
2023-04-13T10:54:17.049Z,436.7500
2023-04-13T10:55:20.965Z,438.2500
2023-04-13T10:56:24.868Z,435.8333
2023-04-13T10:57:28.752Z,434.3333
2023-04-13T10:58:33.223Z,431.0000
2023-04-13T10:59:49.159Z,430.5000
2023-04-13T11:00:46.161Z,428.0000
2023-04-13T11:01:46.240Z,429.5454
2023-04-13T11:02:50.294Z,433.3333
2023-04-13T11:04:04.630Z,435.1667
2023-04-13T11:04:58.713Z,439.3636
2023-04-13T11:06:02.626Z,441.0833
2023-04-13T11:07:06.473Z,439.1667
2023-04-13T11:08:10.392Z,439.8333
2023-04-13T11:09:16.791Z,436.7500
2023-04-13T11:10:15.857Z,435.1818
2023-04-13T11:11:19.798Z,436.9167
2023-04-13T11:12:23.710Z,436.0833
2023-04-13T11:13:27.621Z,435.1667
2023-04-13T11:14:31.523Z,433.3333
2023-04-13T11:15:35.409Z,434.8333
2023-04-13T11:16:39.468Z,435.5833
2023-04-13T11:17:43.399Z,431.7500
2023-04-13T11:18:47.543Z,435.5833
2023-04-13T11:19:51.435Z,439.7500
2023-04-13T11:20:55.377Z,441.1667
2023-04-13T11:21:59.234Z,441.3333
2023-04-13T11:23:03.173Z,435.5833
2023-04-13T11:24:07.062Z,444.0000
2023-04-13T11:25:10.970Z,450.1667
2023-04-13T11:26:14.851Z,449.7500
2023-04-13T11:27:18.733Z,450.7500
2023-04-13T11:28:22.671Z,453.6667
2023-04-13T11:29:26.575Z,456.7500
2023-04-13T11:30:30.465Z,458.9167
2023-04-13T11:31:34.628Z,458.2500
2023-04-13T11:32:38.514Z,459.3333
2023-04-13T11:33:42.373Z,462.1667
2023-04-13T11:34:46.288Z,461.6667
2023-04-13T11:35:50.443Z,463.8333
2023-04-13T11:36:54.378Z,465.4167
2023-04-13T11:37:58.297Z,461.4167
2023-04-13T11:39:02.293Z,465.0000
2023-04-13T11:40:06.151Z,463.8333
2023-04-13T11:41:16.611Z,463.7500
2023-04-13T11:42:14.547Z,464.0000
2023-04-13T11:43:19.403Z,468.0833
2023-04-13T11:44:23.312Z,465.6667
2023-04-13T11:45:27.224Z,462.4167
2023-04-13T11:46:31.584Z,462.5833
2023-04-13T11:47:35.618Z,462.0833
2023-04-13T11:48:39.480Z,467.0000
2023-04-13T11:49:43.390Z,468.5000
2023-04-13T11:50:47.306Z,468.5000
2023-04-13T11:51:51.204Z,467.0833
2023-04-13T11:52:55.114Z,470.2500
2023-04-13T11:53:59.071Z,470.1667
2023-04-13T11:55:11.088Z,470.0833
2023-04-13T11:56:07.680Z,469.5454
2023-04-13T11:57:11.585Z,475.5000
2023-04-13T11:58:15.554Z,479.5000
2023-04-13T11:59:19.442Z,477.0000
2023-04-13T12:00:23.347Z,477.5000
2023-04-13T12:01:32.309Z,478.4167
2023-04-13T12:02:33.665Z,477.9091
2023-04-13T12:03:47.023Z,475.4546
2023-04-13T12:04:37.904Z,478.8182
2023-04-13T12:05:42.338Z,480.3333
2023-04-13T12:06:46.598Z,479.5833
2023-04-13T12:07:51.407Z,480.7500
2023-04-13T12:08:59.905Z,479.6667
2023-04-13T12:10:05.526Z,480.2727
2023-04-13T12:12:46.491Z,483.9091
2023-04-13T12:14:20.939Z,482.1818
2023-04-13T12:16:25.791Z,484.5454
2023-04-13T12:17:39.113Z,482.6364
2023-04-13T12:18:36.625Z,484.7273
2023-04-13T12:19:35.602Z,486.7273
2023-04-13T12:20:39.805Z,485.9167
2023-04-13T12:21:44.839Z,484.6667
2023-04-13T12:22:57.727Z,479.5000
2023-04-13T12:23:53.502Z,482.0909
2023-04-13T12:24:58.382Z,482.5000
2023-04-13T12:25:57.890Z,483.8182
2023-04-13T12:27:17.648Z,484.5833
2023-04-13T12:28:06.280Z,486.8182
2023-04-13T12:29:10.228Z,487.2500
2023-04-13T12:30:14.111Z,486.5833
2023-04-13T12:31:17.996Z,487.0833
2023-04-13T12:32:21.950Z,484.9167
2023-04-13T12:33:25.828Z,486.3333